sensor_id;sensor_type;location;lat;lon;timestamp;pressure;altitude;pressure_sealevel;temperature;humidity
9307;BME280;4691;47.612;7.610;2023-05-23T00:01:11;98683.81;;;17.09;100.00
9307;BME280;4691;47.612;7.610;2023-05-23T00:03:38;98689.84;;;17.03;100.00
9307;BME280;4691;47.612;7.610;2023-05-23T00:06:05;98679.22;;;17.01;100.00
9307;BME280;4691;47.612;7.610;2023-05-23T00:08:31;98677.00;;;16.96;100.00
9307;BME280;4691;47.612;7.610;2023-05-23T00:10:56;98679.38;;;16.91;100.00
9307;BME280;4691;47.612;7.610;2023-05-23T00:13:21;98677.16;;;16.87;100.00
9307;BME280;4691;47.612;7.610;2023-05-23T00:15:47;98682.53;;;16.79;100.00
9307;BME280;4691;47.612;7.610;2023-05-23T00:18:12;98679.94;;;16.77;100.00
9307;BME280;4691;47.612;7.610;2023-05-23T00:20:40;98680.25;;;16.74;100.00
9307;BME280;4691;47.612;7.610;2023-05-23T00:23:07;98687.69;;;16.72;100.00
9307;BME280;4691;47.612;7.610;2023-05-23T00:25:34;98681.91;;;16.67;100.00
9307;BME280;4691;47.612;7.610;2023-05-23T00:28:00;98682.94;;;16.66;100.00
9307;BME280;4691;47.612;7.610;2023-05-23T00:30:29;98670.59;;;16.63;100.00
9307;BME280;4691;47.612;7.610;2023-05-23T00:32:55;98662.00;;;16.60;100.00
9307;BME280;4691;47.612;7.610;2023-05-23T00:35:20;98667.84;;;16.81;100.00
9307;BME280;4691;47.612;7.610;2023-05-23T00:37:48;98659.31;;;16.60;100.00
9307;BME280;4691;47.612;7.610;2023-05-23T00:40:18;98669.38;;;16.49;100.00
9307;BME280;4691;47.612;7.610;2023-05-23T00:42:44;98651.47;;;16.48;100.00
9307;BME280;4691;47.612;7.610;2023-05-23T00:45:10;98659.91;;;16.45;100.00
9307;BME280;4691;47.612;7.610;2023-05-23T00:47:39;98649.75;;;16.39;100.00
9307;BME280;4691;47.612;7.610;2023-05-23T00:50:12;98646.38;;;16.37;100.00
9307;BME280;4691;47.612;7.610;2023-05-23T00:52:41;98637.22;;;16.30;100.00
9307;BME280;4691;47.612;7.610;2023-05-23T00:55:07;98643.91;;;16.26;100.00
9307;BME280;4691;47.612;7.610;2023-05-23T00:57:33;98643.25;;;16.24;100.00
9307;BME280;4691;47.612;7.610;2023-05-23T01:00:00;98631.94;;;16.20;100.00
9307;BME280;4691;47.612;7.610;2023-05-23T01:02:26;98627.00;;;16.16;100.00
9307;BME280;4691;47.612;7.610;2023-05-23T01:04:52;98625.78;;;16.10;100.00
9307;BME280;4691;47.612;7.610;2023-05-23T01:07:20;98609.78;;;16.08;100.00
9307;BME280;4691;47.612;7.610;2023-05-23T01:09:45;98609.78;;;16.08;100.00
9307;BME280;4691;47.612;7.610;2023-05-23T01:15:10;98599.66;;;16.10;100.00
9307;BME280;4691;47.612;7.610;2023-05-23T01:17:43;98589.91;;;16.09;100.00
9307;BME280;4691;47.612;7.610;2023-05-23T01:20:21;98588.03;;;16.10;100.00
9307;BME280;4691;47.612;7.610;2023-05-23T01:28:12;98585.31;;;16.02;100.00
9307;BME280;4691;47.612;7.610;2023-05-23T01:30:39;98585.63;;;15.99;100.00
9307;BME280;4691;47.612;7.610;2023-05-23T01:33:07;98589.63;;;15.95;100.00
9307;BME280;4691;47.612;7.610;2023-05-23T01:35:34;98587.13;;;15.93;100.00
9307;BME280;4691;47.612;7.610;2023-05-23T01:37:59;98578.34;;;15.91;100.00
9307;BME280;4691;47.612;7.610;2023-05-23T01:40:25;98585.41;;;15.92;100.00
9307;BME280;4691;47.612;7.610;2023-05-23T01:42:51;98586.06;;;15.86;100.00
9307;BME280;4691;47.612;7.610;2023-05-23T01:45:17;98581.81;;;15.83;100.00
9307;BME280;4691;47.612;7.610;2023-05-23T01:47:46;98581.28;;;15.80;100.00
9307;BME280;4691;47.612;7.610;2023-05-23T01:50:13;98584.78;;;15.72;100.00
9307;BME280;4691;47.612;7.610;2023-05-23T01:52:39;98590.25;;;15.62;100.00
9307;BME280;4691;47.612;7.610;2023-05-23T01:55:05;98592.19;;;15.52;100.00
9307;BME280;4691;47.612;7.610;2023-05-23T01:57:36;98582.41;;;15.51;100.00
9307;BME280;4691;47.612;7.610;2023-05-23T02:00:03;98563.16;;;15.46;100.00
9307;BME280;4691;47.612;7.610;2023-05-23T02:02:31;98565.19;;;15.44;100.00
9307;BME280;4691;47.612;7.610;2023-05-23T02:04:57;98555.34;;;15.35;100.00
9307;BME280;4691;47.612;7.610;2023-05-23T02:07:22;98556.63;;;15.31;100.00
9307;BME280;4691;47.612;7.610;2023-05-23T02:09:48;98539.50;;;15.32;100.00
9307;BME280;4691;47.612;7.610;2023-05-23T02:12:13;98542.66;;;15.27;100.00
9307;BME280;4691;47.612;7.610;2023-05-23T02:14:39;98545.66;;;15.24;100.00
9307;BME280;4691;47.612;7.610;2023-05-23T02:19:43;98535.66;;;15.16;100.00
9307;BME280;4691;47.612;7.610;2023-05-23T02:22:11;98536.38;;;15.18;100.00
9307;BME280;4691;47.612;7.610;2023-05-23T02:24:38;98534.66;;;15.17;100.00
9307;BME280;4691;47.612;7.610;2023-05-23T02:27:04;98521.88;;;15.19;100.00
9307;BME280;4691;47.612;7.610;2023-05-23T02:29:29;98528.28;;;15.18;100.00
9307;BME280;4691;47.612;7.610;2023-05-23T02:31:55;98507.72;;;15.17;100.00
9307;BME280;4691;47.612;7.610;2023-05-23T02:34:20;98511.44;;;15.16;100.00
9307;BME280;4691;47.612;7.610;2023-05-23T02:36:45;98497.13;;;15.16;100.00
9307;BME280;4691;47.612;7.610;2023-05-23T02:39:10;98492.72;;;15.15;100.00
9307;BME280;4691;47.612;7.610;2023-05-23T02:41:36;98487.19;;;15.16;100.00
9307;BME280;4691;47.612;7.610;2023-05-23T02:44:01;98480.09;;;15.15;100.00
9307;BME280;4691;47.612;7.610;2023-05-23T02:46:27;98473.03;;;15.14;100.00
9307;BME280;4691;47.612;7.610;2023-05-23T02:48:52;98462.25;;;15.14;100.00
9307;BME280;4691;47.612;7.610;2023-05-23T02:51:17;98462.25;;;15.14;100.00
9307;BME280;4691;47.612;7.610;2023-05-23T02:53:43;98456.88;;;15.14;100.00
9307;BME280;4691;47.612;7.610;2023-05-23T02:56:08;98433.34;;;15.16;100.00
9307;BME280;4691;47.612;7.610;2023-05-23T02:58:34;98433.34;;;15.16;100.00
9307;BME280;4691;47.612;7.610;2023-05-23T03:01:05;98424.25;;;15.17;100.00
9307;BME280;4691;47.612;7.610;2023-05-23T03:03:30;98424.41;;;15.16;100.00
9307;BME280;4691;47.612;7.610;2023-05-23T03:05:59;98426.22;;;15.15;100.00
9307;BME280;4691;47.612;7.610;2023-05-23T03:08:25;98412.09;;;15.13;100.00
9307;BME280;4691;47.612;7.610;2023-05-23T03:10:50;98421.16;;;15.12;100.00
9307;BME280;4691;47.612;7.610;2023-05-23T03:13:17;98422.34;;;15.10;100.00
9307;BME280;4691;47.612;7.610;2023-05-23T03:15:42;98416.25;;;15.08;100.00
9307;BME280;4691;47.612;7.610;2023-05-23T03:18:07;98407.03;;;15.10;100.00
9307;BME280;4691;47.612;7.610;2023-05-23T03:20:33;98396.94;;;15.12;100.00
9307;BME280;4691;47.612;7.610;2023-05-23T03:22:58;98393.25;;;15.13;100.00
9307;BME280;4691;47.612;7.610;2023-05-23T03:25:23;98391.22;;;15.15;100.00
9307;BME280;4691;47.612;7.610;2023-05-23T03:27:49;98388.25;;;15.18;100.00
9307;BME280;4691;47.612;7.610;2023-05-23T03:30:14;98384.38;;;15.21;100.00
9307;BME280;4691;47.612;7.610;2023-05-23T03:32:39;98387.91;;;15.21;100.00
9307;BME280;4691;47.612;7.610;2023-05-23T03:35:05;98379.03;;;15.29;100.00
9307;BME280;4691;47.612;7.610;2023-05-23T03:37:30;98374.50;;;15.30;100.00
9307;BME280;4691;47.612;7.610;2023-05-23T03:39:56;98384.44;;;15.29;100.00
9307;BME280;4691;47.612;7.610;2023-05-23T03:42:21;98392.66;;;15.28;100.00
9307;BME280;4691;47.612;7.610;2023-05-23T03:44:46;98401.75;;;15.27;100.00
9307;BME280;4691;47.612;7.610;2023-05-23T03:47:12;98402.91;;;15.24;100.00
9307;BME280;4691;47.612;7.610;2023-05-23T03:49:37;98394.97;;;15.22;100.00
9307;BME280;4691;47.612;7.610;2023-05-23T03:52:02;98396.50;;;15.25;100.00
9307;BME280;4691;47.612;7.610;2023-05-23T03:54:28;98399.56;;;15.30;100.00
9307;BME280;4691;47.612;7.610;2023-05-23T03:56:53;98398.03;;;15.28;100.00
9307;BME280;4691;47.612;7.610;2023-05-23T03:59:19;98409.34;;;15.31;100.00
9307;BME280;4691;47.612;7.610;2023-05-23T04:01:47;98417.06;;;15.26;100.00
9307;BME280;4691;47.612;7.610;2023-05-23T04:04:15;98430.69;;;15.24;100.00
9307;BME280;4691;47.612;7.610;2023-05-23T04:06:41;98438.06;;;15.22;100.00
9307;BME280;4691;47.612;7.610;2023-05-23T04:09:12;98451.84;;;15.19;100.00
9307;BME280;4691;47.612;7.610;2023-05-23T04:11:38;98453.50;;;15.12;100.00
9307;BME280;4691;47.612;7.610;2023-05-23T04:14:03;98471.66;;;15.10;100.00
9307;BME280;4691;47.612;7.610;2023-05-23T04:16:29;98473.66;;;15.08;100.00
9307;BME280;4691;47.612;7.610;2023-05-23T04:18:58;98477.34;;;15.07;100.00
9307;BME280;4691;47.612;7.610;2023-05-23T04:21:23;98485.09;;;15.10;100.00
9307;BME280;4691;47.612;7.610;2023-05-23T04:23:49;98480.09;;;15.15;100.00
9307;BME280;4691;47.612;7.610;2023-05-23T04:26:14;98487.19;;;15.16;100.00
9307;BME280;4691;47.612;7.610;2023-05-23T04:28:40;98484.50;;;15.16;100.00
9307;BME280;4691;47.612;7.610;2023-05-23T04:31:10;98499.31;;;15.20;100.00
9307;BME280;4691;47.612;7.610;2023-05-23T04:33:36;98504.41;;;15.23;100.00
9307;BME280;4691;47.612;7.610;2023-05-23T04:36:01;98522.25;;;15.24;100.00
9307;BME280;4691;47.612;7.610;2023-05-23T04:38:26;98533.72;;;15.27;100.00
9307;BME280;4691;47.612;7.610;2023-05-23T04:40:52;98529.88;;;15.29;100.00
9307;BME280;4691;47.612;7.610;2023-05-23T04:43:18;98537.50;;;15.34;100.00
9307;BME280;4691;47.612;7.610;2023-05-23T04:45:44;98534.84;;;15.42;100.00
9307;BME280;4691;47.612;7.610;2023-05-23T04:48:10;98533.69;;;15.44;100.00
9307;BME280;4691;47.612;7.610;2023-05-23T04:50:37;98554.09;;;15.47;100.00
9307;BME280;4691;47.612;7.610;2023-05-23T04:53:04;98560.69;;;15.53;100.00
9307;BME280;4691;47.612;7.610;2023-05-23T04:55:30;98569.28;;;15.56;100.00
9307;BME280;4691;47.612;7.610;2023-05-23T04:57:56;98579.97;;;15.66;100.00
9307;BME280;4691;47.612;7.610;2023-05-23T05:00:21;98596.41;;;15.73;100.00
9307;BME280;4691;47.612;7.610;2023-05-23T05:02:49;98595.25;;;15.75;100.00
9307;BME280;4691;47.612;7.610;2023-05-23T05:05:14;98596.97;;;15.84;100.00
9307;BME280;4691;47.612;7.610;2023-05-23T05:07:39;98599.72;;;15.93;100.00
9307;BME280;4691;47.612;7.610;2023-05-23T05:10:06;98599.25;;;15.97;100.00
9307;BME280;4691;47.612;7.610;2023-05-23T05:12:31;98608.88;;;16.00;100.00
9307;BME280;4691;47.612;7.610;2023-05-23T05:14:56;98610.75;;;15.99;100.00
9307;BME280;4691;47.612;7.610;2023-05-23T05:17:22;98613.09;;;16.02;100.00
9307;BME280;4691;47.612;7.610;2023-05-23T05:19:47;98617.38;;;16.13;100.00
9307;BME280;4691;47.612;7.610;2023-05-23T05:22:12;98623.31;;;16.17;100.00
9307;BME280;4691;47.612;7.610;2023-05-23T05:24:39;98622.19;;;16.27;100.00
9307;BME280;4691;47.612;7.610;2023-05-23T05:27:05;98621.53;;;16.33;100.00
9307;BME280;4691;47.612;7.610;2023-05-23T05:29:30;98624.09;;;16.35;100.00
9307;BME280;4691;47.612;7.610;2023-05-23T05:31:58;98631.88;;;16.46;100.00
9307;BME280;4691;47.612;7.610;2023-05-23T05:34:27;98644.06;;;16.50;100.00
9307;BME280;4691;47.612;7.610;2023-05-23T05:36:53;98650.50;;;16.58;100.00
9307;BME280;4691;47.612;7.610;2023-05-23T05:39:23;98659.78;;;16.55;100.00
9307;BME280;4691;47.612;7.610;2023-05-23T05:41:50;98664.69;;;16.60;100.00
9307;BME280;4691;47.612;7.610;2023-05-23T05:44:16;98677.50;;;16.58;100.00
9307;BME280;4691;47.612;7.610;2023-05-23T05:46:41;98672.13;;;16.66;100.00
9307;BME280;4691;47.612;7.610;2023-05-23T05:49:06;98669.94;;;16.69;100.00
9307;BME280;4691;47.612;7.610;2023-05-23T05:51:34;98678.25;;;16.76;100.00
9307;BME280;4691;47.612;7.610;2023-05-23T05:53:59;98688.59;;;16.81;100.00
9307;BME280;4691;47.612;7.610;2023-05-23T05:56:27;98687.63;;;16.90;100.00
9307;BME280;4691;47.612;7.610;2023-05-23T05:58:53;98692.56;;;17.03;100.00
9307;BME280;4691;47.612;7.610;2023-05-23T06:01:18;98694.81;;;17.24;100.00
9307;BME280;4691;47.612;7.610;2023-05-23T06:03:46;98697.69;;;17.22;100.00
9307;BME280;4691;47.612;7.610;2023-05-23T06:06:11;98706.84;;;17.29;100.00
9307;BME280;4691;47.612;7.610;2023-05-23T06:08:37;98716.63;;;17.38;100.00
9307;BME280;4691;47.612;7.610;2023-05-23T06:11:02;98723.09;;;17.54;100.00
9307;BME280;4691;47.612;7.610;2023-05-23T06:13:27;98725.50;;;17.65;100.00
9307;BME280;4691;47.612;7.610;2023-05-23T06:15:53;98732.22;;;17.53;100.00
9307;BME280;4691;47.612;7.610;2023-05-23T06:18:18;98736.59;;;17.62;100.00
9307;BME280;4691;47.612;7.610;2023-05-23T06:20:43;98744.75;;;17.70;100.00
9307;BME280;4691;47.612;7.610;2023-05-23T06:23:09;98750.50;;;17.75;100.00
9307;BME280;4691;47.612;7.610;2023-05-23T06:25:34;98752.56;;;17.81;100.00
9307;BME280;4691;47.612;7.610;2023-05-23T06:27:59;98764.75;;;18.02;100.00
9307;BME280;4691;47.612;7.610;2023-05-23T06:30:28;98765.94;;;18.16;100.00
9307;BME280;4691;47.612;7.610;2023-05-23T06:32:56;98768.31;;;18.35;100.00
9307;BME280;4691;47.612;7.610;2023-05-23T06:35:22;98771.81;;;18.52;100.00
9307;BME280;4691;47.612;7.610;2023-05-23T06:37:47;98768.56;;;18.89;100.00
9307;BME280;4691;47.612;7.610;2023-05-23T06:40:13;98777.25;;;19.24;100.00
9307;BME280;4691;47.612;7.610;2023-05-23T06:42:39;98774.59;;;19.47;100.00
9307;BME280;4691;47.612;7.610;2023-05-23T06:45:04;98782.00;;;19.53;100.00
9307;BME280;4691;47.612;7.610;2023-05-23T06:47:30;98781.88;;;19.47;100.00
9307;BME280;4691;47.612;7.610;2023-05-23T06:49:55;98787.81;;;19.50;100.00
9307;BME280;4691;47.612;7.610;2023-05-23T06:52:20;98797.94;;;19.56;100.00
9307;BME280;4691;47.612;7.610;2023-05-23T06:54:46;98803.88;;;19.52;100.00
9307;BME280;4691;47.612;7.610;2023-05-23T06:57:11;98800.53;;;19.50;100.00
9307;BME280;4691;47.612;7.610;2023-05-23T06:59:36;98802.69;;;19.54;100.00
9307;BME280;4691;47.612;7.610;2023-05-23T07:02:01;98808.63;;;19.89;100.00
9307;BME280;4691;47.612;7.610;2023-05-23T07:04:27;98813.69;;;19.92;100.00
9307;BME280;4691;47.612;7.610;2023-05-23T07:06:52;98810.25;;;20.21;100.00
9307;BME280;4691;47.612;7.610;2023-05-23T07:09:18;98816.56;;;20.14;100.00
9307;BME280;4691;47.612;7.610;2023-05-23T07:11:43;98823.16;;;20.42;100.00
9307;BME280;4691;47.612;7.610;2023-05-23T07:14:08;98817.78;;;20.34;100.00
9307;BME280;4691;47.612;7.610;2023-05-23T07:16:33;98824.78;;;20.29;100.00
9307;BME280;4691;47.612;7.610;2023-05-23T07:19:00;98831.78;;;20.23;100.00
9307;BME280;4691;47.612;7.610;2023-05-23T07:21:25;98823.94;;;20.51;100.00
9307;BME280;4691;47.612;7.610;2023-05-23T07:23:50;98830.09;;;20.68;100.00
9307;BME280;4691;47.612;7.610;2023-05-23T07:26:16;98828.03;;;20.47;100.00
9307;BME280;4691;47.612;7.610;2023-05-23T07:28:41;98836.31;;;20.31;100.00
9307;BME280;4691;47.612;7.610;2023-05-23T07:31:06;98839.72;;;20.56;100.00
9307;BME280;4691;47.612;7.610;2023-05-23T07:33:33;98842.28;;;20.49;100.00
9307;BME280;4691;47.612;7.610;2023-05-23T07:35:58;98838.78;;;20.40;100.00
9307;BME280;4691;47.612;7.610;2023-05-23T07:38:25;98847.88;;;20.94;100.00
9307;BME280;4691;47.612;7.610;2023-05-23T07:40:51;98837.53;;;20.89;100.00
9307;BME280;4691;47.612;7.610;2023-05-23T07:43:16;98843.34;;;20.86;100.00
9307;BME280;4691;47.612;7.610;2023-05-23T07:45:43;98846.19;;;20.70;100.00
9307;BME280;4691;47.612;7.610;2023-05-23T07:48:09;98847.13;;;20.62;100.00
9307;BME280;4691;47.612;7.610;2023-05-23T07:50:38;98846.69;;;20.73;100.00
9307;BME280;4691;47.612;7.610;2023-05-23T07:53:04;98844.28;;;20.93;100.00
9307;BME280;4691;47.612;7.610;2023-05-23T07:55:30;98847.41;;;21.20;100.00
9307;BME280;4691;47.612;7.610;2023-05-23T07:57:55;98837.47;;;21.42;100.00
9307;BME280;4691;47.612;7.610;2023-05-23T08:00:21;98841.53;;;21.46;100.00
9307;BME280;4691;47.612;7.610;2023-05-23T08:02:46;98843.75;;;21.57;100.00
9307;BME280;4691;47.612;7.610;2023-05-23T08:05:12;98831.53;;;21.68;100.00
9307;BME280;4691;47.612;7.610;2023-05-23T08:07:37;98825.50;;;21.72;100.00
9307;BME280;4691;47.612;7.610;2023-05-23T08:10:02;98841.31;;;21.62;100.00
9307;BME280;4691;47.612;7.610;2023-05-23T08:12:28;98843.56;;;21.59;100.00
9307;BME280;4691;47.612;7.610;2023-05-23T08:14:53;98839.97;;;21.73;100.00
9307;BME280;4691;47.612;7.610;2023-05-23T08:17:18;98837.66;;;21.25;100.00
9307;BME280;4691;47.612;7.610;2023-05-23T08:19:44;98854.69;;;20.90;100.00
9307;BME280;4691;47.612;7.610;2023-05-23T08:22:09;98850.28;;;20.88;100.00
9307;BME280;4691;47.612;7.610;2023-05-23T08:24:37;98847.31;;;21.28;100.00
9307;BME280;4691;47.612;7.610;2023-05-23T08:27:03;98843.97;;;21.56;100.00
9307;BME280;4691;47.612;7.610;2023-05-23T08:29:28;98857.44;;;21.34;100.00
9307;BME280;4691;47.612;7.610;2023-05-23T08:31:53;98847.13;;;21.95;100.00
9307;BME280;4691;47.612;7.610;2023-05-23T08:34:24;98859.78;;;21.67;100.00
9307;BME280;4691;47.612;7.610;2023-05-23T08:36:52;98850.56;;;21.83;100.00
9307;BME280;4691;47.612;7.610;2023-05-23T08:39:18;98865.41;;;21.36;100.00
9307;BME280;4691;47.612;7.610;2023-05-23T08:41:43;98865.78;;;21.62;100.00
9307;BME280;4691;47.612;7.610;2023-05-23T08:44:09;98868.34;;;21.49;100.00
9307;BME280;4691;47.612;7.610;2023-05-23T08:46:38;98868.22;;;21.57;100.00
9307;BME280;4691;47.612;7.610;2023-05-23T08:49:06;98860.56;;;21.46;100.00
9307;BME280;4691;47.612;7.610;2023-05-23T08:51:32;98872.63;;;21.73;100.00
9307;BME280;4691;47.612;7.610;2023-05-23T08:54:00;98860.50;;;21.75;100.00
9307;BME280;4691;47.612;7.610;2023-05-23T08:56:26;98869.72;;;21.45;100.00
9307;BME280;4691;47.612;7.610;2023-05-23T08:58:53;98866.06;;;21.67;100.00
9307;BME280;4691;47.612;7.610;2023-05-23T09:01:19;98869.16;;;21.64;100.00
9307;BME280;4691;47.612;7.610;2023-05-23T09:03:44;98863.50;;;21.81;100.00
9307;BME280;4691;47.612;7.610;2023-05-23T09:06:10;98854.78;;;22.22;100.00
9307;BME280;4691;47.612;7.610;2023-05-23T09:08:36;98855.03;;;21.90;100.00
9307;BME280;4691;47.612;7.610;2023-05-23T09:11:02;98865.06;;;21.68;100.00
9307;BME280;4691;47.612;7.610;2023-05-23T09:13:29;98861.16;;;21.92;100.00
9307;BME280;4691;47.612;7.610;2023-05-23T09:18:32;98855.78;;;21.99;100.00
9307;BME280;4691;47.612;7.610;2023-05-23T09:20:58;98857.88;;;22.18;100.00
9307;BME280;4691;47.612;7.610;2023-05-23T09:23:23;98858.81;;;22.47;100.00
9307;BME280;4691;47.612;7.610;2023-05-23T09:25:48;98845.50;;;23.09;100.00
9307;BME280;4691;47.612;7.610;2023-05-23T09:28:14;98850.47;;;22.98;100.00
9307;BME280;4691;47.612;7.610;2023-05-23T09:30:39;98853.84;;;23.00;100.00
9307;BME280;4691;47.612;7.610;2023-05-23T09:33:05;98837.09;;;22.54;100.00
9307;BME280;4691;47.612;7.610;2023-05-23T09:35:30;98852.25;;;23.13;100.00
9307;BME280;4691;47.612;7.610;2023-05-23T09:37:57;98829.56;;;23.40;100.00
9307;BME280;4691;47.612;7.610;2023-05-23T09:40:32;98839.44;;;23.48;100.00
9307;BME280;4691;47.612;7.610;2023-05-23T09:43:02;98835.72;;;23.62;100.00
9307;BME280;4691;47.612;7.610;2023-05-23T09:45:29;98836.59;;;23.28;100.00
9307;BME280;4691;47.612;7.610;2023-05-23T09:47:55;98835.25;;;23.45;100.00
9307;BME280;4691;47.612;7.610;2023-05-23T09:50:21;98816.41;;;24.19;100.00
9307;BME280;4691;47.612;7.610;2023-05-23T09:52:47;98805.31;;;24.60;100.00
9307;BME280;4691;47.612;7.610;2023-05-23T09:55:12;98803.63;;;24.86;100.00
9307;BME280;4691;47.612;7.610;2023-05-23T09:57:40;98805.66;;;24.10;100.00
9307;BME280;4691;47.612;7.610;2023-05-23T10:00:10;98805.31;;;24.73;100.00
9307;BME280;4691;47.612;7.610;2023-05-23T10:03:04;98798.50;;;25.23;100.00
9307;BME280;4691;47.612;7.610;2023-05-23T10:05:46;98776.66;;;26.13;100.00
9307;BME280;4691;47.612;7.610;2023-05-23T10:08:38;98779.72;;;25.98;100.00
9307;BME280;4691;47.612;7.610;2023-05-23T10:14:01;98763.16;;;26.68;100.00
9307;BME280;4691;47.612;7.610;2023-05-23T10:16:45;98753.00;;;26.93;100.00
9307;BME280;4691;47.612;7.610;2023-05-23T10:19:24;98754.63;;;27.20;100.00
9307;BME280;4691;47.612;7.610;2023-05-23T10:21:56;98749.34;;;26.56;100.00
9307;BME280;4691;47.612;7.610;2023-05-23T10:24:24;98758.91;;;26.72;100.00
9307;BME280;4691;47.612;7.610;2023-05-23T10:26:51;98754.75;;;27.06;100.00
9307;BME280;4691;47.612;7.610;2023-05-23T10:29:17;98753.06;;;26.87;100.00
9307;BME280;4691;47.612;7.610;2023-05-23T10:31:42;98748.38;;;26.19;100.00
9307;BME280;4691;47.612;7.610;2023-05-23T10:34:47;98742.25;;;26.17;100.00
9307;BME280;4691;47.612;7.610;2023-05-23T10:37:27;98731.81;;;26.82;100.00
9307;BME280;4691;47.612;7.610;2023-05-23T10:39:56;98701.69;;;28.21;100.00
9307;BME280;4691;47.612;7.610;2023-05-23T10:45:22;98715.41;;;27.79;100.00
9307;BME280;4691;47.612;7.610;2023-05-23T10:47:49;98732.00;;;27.24;100.00
9307;BME280;4691;47.612;7.610;2023-05-23T10:50:35;98734.97;;;27.41;100.00
9307;BME280;4691;47.612;7.610;2023-05-23T10:53:05;98704.84;;;28.60;100.00
9307;BME280;4691;47.612;7.610;2023-05-23T10:55:32;98709.00;;;27.55;100.00
9307;BME280;4691;47.612;7.610;2023-05-23T10:58:08;98740.06;;;27.01;100.00
9307;BME280;4691;47.612;7.610;2023-05-23T11:00:34;98719.09;;;26.38;100.00
9307;BME280;4691;47.612;7.610;2023-05-23T11:03:04;98712.78;;;28.03;100.00
9307;BME280;4691;47.612;7.610;2023-05-23T11:05:33;98713.84;;;28.02;100.00
9307;BME280;4691;47.612;7.610;2023-05-23T11:08:10;98693.94;;;28.89;100.00
9307;BME280;4691;47.612;7.610;2023-05-23T11:11:00;98694.81;;;28.54;100.00
9307;BME280;4691;47.612;7.610;2023-05-23T11:13:55;98708.03;;;27.50;100.00
9307;BME280;4691;47.612;7.610;2023-05-23T11:16:40;98693.44;;;28.21;100.00
9307;BME280;4691;47.612;7.610;2023-05-23T11:21:54;98679.00;;;29.08;100.00
9307;BME280;4691;47.612;7.610;2023-05-23T11:24:21;98668.81;;;29.09;100.00
9307;BME280;4691;47.612;7.610;2023-05-23T11:29:16;98677.84;;;28.57;100.00
9307;BME280;4691;47.612;7.610;2023-05-23T11:31:41;98680.84;;;28.02;100.00
9307;BME280;4691;47.612;7.610;2023-05-23T11:34:07;98692.63;;;28.33;100.00
9307;BME280;4691;47.612;7.610;2023-05-23T11:36:34;98672.09;;;28.71;100.00
9307;BME280;4691;47.612;7.610;2023-05-23T11:39:03;98688.34;;;27.83;100.00
9307;BME280;4691;47.612;7.610;2023-05-23T11:41:33;98682.66;;;27.66;100.00
9307;BME280;4691;47.612;7.610;2023-05-23T11:43:59;98672.75;;;28.07;100.00
9307;BME280;4691;47.612;7.610;2023-05-23T11:46:26;98687.13;;;27.49;100.00
9307;BME280;4691;47.612;7.610;2023-05-23T11:48:51;98701.13;;;27.10;100.00
9307;BME280;4691;47.612;7.610;2023-05-23T11:51:17;98666.19;;;28.08;100.00
9307;BME280;4691;47.612;7.610;2023-05-23T11:53:44;98676.28;;;27.84;100.00
9307;BME280;4691;47.612;7.610;2023-05-23T11:56:09;98654.72;;;28.82;100.00
9307;BME280;4691;47.612;7.610;2023-05-23T11:58:36;98645.78;;;29.27;100.00
9307;BME280;4691;47.612;7.610;2023-05-23T12:01:09;98643.72;;;29.34;100.00
9307;BME280;4691;47.612;7.610;2023-05-23T12:03:44;98619.47;;;29.48;100.00
9307;BME280;4691;47.612;7.610;2023-05-23T12:06:10;98605.50;;;29.83;100.00
9307;BME280;4691;47.612;7.610;2023-05-23T12:08:35;98626.81;;;28.90;100.00
9307;BME280;4691;47.612;7.610;2023-05-23T12:11:01;98638.34;;;28.16;100.00
9307;BME280;4691;47.612;7.610;2023-05-23T12:13:28;98628.94;;;28.48;100.00
9307;BME280;4691;47.612;7.610;2023-05-23T12:15:58;98666.06;;;28.03;100.00
9307;BME280;4691;47.612;7.610;2023-05-23T12:18:28;98634.13;;;28.96;100.00
9307;BME280;4691;47.612;7.610;2023-05-23T12:20:54;98637.41;;;29.50;100.00
9307;BME280;4691;47.612;7.610;2023-05-23T12:23:21;98621.59;;;28.77;100.00
9307;BME280;4691;47.612;7.610;2023-05-23T12:25:51;98629.72;;;28.13;100.00
9307;BME280;4691;47.612;7.610;2023-05-23T12:28:17;98630.47;;;28.67;100.00
9307;BME280;4691;47.612;7.610;2023-05-23T12:30:43;98611.13;;;28.62;100.00
9307;BME280;4691;47.612;7.610;2023-05-23T12:33:08;98599.75;;;29.68;100.00
9307;BME280;4691;47.612;7.610;2023-05-23T12:35:34;98599.00;;;29.72;100.00
9307;BME280;4691;47.612;7.610;2023-05-23T12:38:00;98593.59;;;29.78;100.00
9307;BME280;4691;47.612;7.610;2023-05-23T12:40:27;98583.44;;;29.66;100.00
9307;BME280;4691;47.612;7.610;2023-05-23T12:42:53;98613.53;;;28.47;100.00
9307;BME280;4691;47.612;7.610;2023-05-23T12:45:38;98586.66;;;29.18;100.00
9307;BME280;4691;47.612;7.610;2023-05-23T12:48:06;98597.97;;;29.33;100.00
9307;BME280;4691;47.612;7.610;2023-05-23T12:50:32;98594.38;;;28.92;100.00
9307;BME280;4691;47.612;7.610;2023-05-23T12:52:58;98606.16;;;28.76;100.00
9307;BME280;4691;47.612;7.610;2023-05-23T12:55:24;98576.75;;;29.17;100.00
9307;BME280;4691;47.612;7.610;2023-05-23T12:57:49;98563.16;;;29.89;100.00
9307;BME280;4691;47.612;7.610;2023-05-23T13:00:15;98556.53;;;29.57;100.00
9307;BME280;4691;47.612;7.610;2023-05-23T13:02:41;98578.59;;;28.99;100.00
9307;BME280;4691;47.612;7.610;2023-05-23T13:05:06;98570.78;;;29.08;100.00
9307;BME280;4691;47.612;7.610;2023-05-23T13:07:32;98581.22;;;28.94;100.00
9307;BME280;4691;47.612;7.610;2023-05-23T13:09:57;98602.03;;;28.14;100.00
9307;BME280;4691;47.612;7.610;2023-05-23T13:12:23;98618.28;;;28.51;100.00
9307;BME280;4691;47.612;7.610;2023-05-23T13:14:49;98595.41;;;27.80;100.00
9307;BME280;4691;47.612;7.610;2023-05-23T13:17:14;98610.28;;;27.30;100.00
9307;BME280;4691;47.612;7.610;2023-05-23T13:19:40;98595.06;;;28.00;100.00
9307;BME280;4691;47.612;7.610;2023-05-23T13:22:06;98590.53;;;27.94;100.00
9307;BME280;4691;47.612;7.610;2023-05-23T13:24:35;98589.94;;;28.51;100.00
9307;BME280;4691;47.612;7.610;2023-05-23T13:27:01;98584.47;;;28.91;100.00
9307;BME280;4691;47.612;7.610;2023-05-23T13:29:27;98569.38;;;28.65;100.00
9307;BME280;4691;47.612;7.610;2023-05-23T13:31:52;98606.91;;;27.89;100.00
9307;BME280;4691;47.612;7.610;2023-05-23T13:34:18;98617.28;;;27.87;100.00